createdAt,value
2023-05-25T04:15:21.957Z,8.27
2023-05-25T04:18:24.857Z,7.65
2023-05-25T04:21:30.374Z,6.40
2023-05-25T04:24:35.197Z,6.00
2023-05-25T04:27:38.109Z,6.15
2023-05-25T04:30:42.304Z,5.90
2023-05-25T04:33:45.082Z,6.07
2023-05-25T04:36:48.163Z,6.43
2023-05-25T04:39:51.485Z,5.20
2023-05-25T04:43:00.024Z,5.88
2023-05-25T04:46:08.020Z,6.05
2023-05-25T04:49:11.033Z,5.70
2023-05-25T04:52:13.969Z,5.88
2023-05-25T04:55:24.958Z,5.53
2023-05-25T04:58:29.583Z,5.03
2023-05-25T05:01:34.579Z,5.72
2023-05-25T05:04:38.609Z,5.00
2023-05-25T05:07:41.283Z,5.00
2023-05-25T05:10:44.779Z,5.32
2023-05-25T05:13:47.469Z,6.13
2023-05-25T05:16:51.482Z,5.32
2023-05-25T05:19:54.100Z,4.82
2023-05-25T05:22:56.621Z,4.90
2023-05-25T05:25:59.119Z,4.72
2023-05-25T05:29:01.611Z,4.85
2023-05-25T05:32:05.906Z,4.70
2023-05-25T05:35:09.000Z,4.63
2023-05-25T05:38:11.717Z,4.40
2023-05-25T05:41:14.453Z,4.22
2023-05-25T05:44:17.113Z,4.80
2023-05-25T05:47:21.311Z,4.68
2023-05-25T05:50:23.953Z,4.63
2023-05-25T05:53:26.544Z,4.47
2023-05-25T05:56:29.056Z,4.50
2023-05-25T05:59:31.598Z,3.88
2023-05-25T06:02:35.680Z,3.88
2023-05-25T06:05:38.295Z,4.30
2023-05-25T06:08:41.603Z,4.22
2023-05-25T06:11:44.112Z,3.75
2023-05-25T06:14:49.227Z,4.18
2023-05-25T06:17:53.364Z,4.40
2023-05-25T06:20:55.886Z,3.60
2023-05-25T06:23:58.663Z,4.22
2023-05-25T06:27:03.243Z,4.68
2023-05-25T06:30:06.919Z,4.35
2023-05-25T06:33:10.771Z,3.92
2023-05-25T06:36:15.675Z,3.58
2023-05-25T06:39:18.637Z,3.55
2023-05-25T06:42:21.148Z,4.07
2023-05-25T06:45:23.667Z,3.88
2023-05-25T06:48:27.802Z,3.92
2023-05-25T06:51:31.433Z,3.85
2023-05-25T06:54:34.021Z,3.35
2023-05-25T06:57:36.672Z,3.63
2023-05-25T07:00:39.197Z,3.63
2023-05-25T07:03:43.263Z,4.10
2023-05-25T07:06:46.125Z,3.47
2023-05-25T07:09:48.676Z,3.22
2023-05-25T07:12:51.185Z,3.28
2023-05-25T07:15:53.714Z,3.22
2023-05-25T07:18:59.423Z,3.08
2023-05-25T07:22:02.766Z,3.35
2023-05-25T07:25:06.149Z,2.80
2023-05-25T07:28:09.172Z,3.20
2023-05-25T07:31:12.058Z,3.38
2023-05-25T07:34:16.178Z,3.15
2023-05-25T07:37:18.707Z,3.38
2023-05-25T07:40:21.320Z,3.83
2023-05-25T07:43:23.854Z,3.13
2023-05-25T07:46:27.066Z,3.10
2023-05-25T07:49:30.917Z,2.55
2023-05-25T07:52:33.552Z,2.90
2023-05-25T07:55:36.103Z,3.13
2023-05-25T07:58:38.598Z,3.50
2023-05-25T08:01:41.200Z,2.92
2023-05-25T08:04:45.467Z,3.72
2023-05-25T08:07:48.195Z,3.33
2023-05-25T08:10:50.735Z,3.20
2023-05-25T08:13:53.432Z,3.17
2023-05-25T08:16:56.106Z,3.25
2023-05-25T08:20:00.100Z,3.00
2023-05-25T08:23:02.770Z,2.97
2023-05-25T08:26:20.439Z,2.90
2023-05-25T08:29:29.024Z,3.22
2023-05-25T08:32:31.567Z,3.28
2023-05-25T08:35:39.261Z,3.30
2023-05-25T08:38:41.853Z,2.92
2023-05-25T08:41:45.523Z,3.30
2023-05-25T08:44:48.077Z,3.53
2023-05-25T08:47:55.192Z,3.10
2023-05-25T08:51:01.572Z,3.95
2023-05-25T08:54:08.920Z,2.95
2023-05-25T08:57:16.089Z,3.72
2023-05-25T09:00:22.843Z,3.17
2023-05-25T09:03:25.907Z,2.97
2023-05-25T09:06:31.610Z,3.28
2023-05-25T09:09:37.042Z,3.20
2023-05-25T09:12:40.138Z,3.10
2023-05-25T09:15:42.757Z,3.10
2023-05-25T09:18:45.501Z,3.85
2023-05-25T09:21:51.326Z,3.70
2023-05-25T09:24:55.708Z,2.85
2023-05-25T09:28:01.300Z,3.45
2023-05-25T09:31:07.672Z,3.78
2023-05-25T09:34:12.926Z,3.50
2023-05-25T09:37:19.461Z,3.42
2023-05-25T09:40:22.403Z,3.30
2023-05-25T09:43:39.689Z,3.15
2023-05-25T09:46:45.720Z,3.40
2023-05-25T09:49:50.534Z,3.05
2023-05-25T09:52:59.241Z,2.67
2023-05-25T09:56:03.927Z,3.42
2023-05-25T09:59:07.456Z,2.85
2023-05-25T10:02:10.178Z,3.00
2023-05-25T10:05:12.721Z,2.85
2023-05-25T10:08:18.773Z,2.33
2023-05-25T10:11:22.624Z,2.65
2023-05-25T10:14:29.467Z,2.72
2023-05-25T10:17:33.664Z,3.55
2023-05-25T10:20:37.383Z,3.00
2023-05-25T10:23:48.090Z,2.83
2023-05-25T10:26:55.336Z,3.40
2023-05-25T10:29:59.127Z,2.70
2023-05-25T10:33:03.598Z,2.55
2023-05-25T10:36:11.208Z,2.67
2023-05-25T10:39:17.130Z,3.08
2023-05-25T10:42:19.975Z,2.92
2023-05-25T10:45:23.018Z,2.63
2023-05-25T10:48:36.022Z,3.08
2023-05-25T10:51:39.538Z,3.15
2023-05-25T10:54:44.418Z,3.15
2023-05-25T10:57:47.307Z,2.33
2023-05-25T11:00:59.082Z,3.00
2023-05-25T11:04:17.180Z,3.55
2023-05-25T11:07:22.949Z,3.63
2023-05-25T11:10:54.826Z,3.42
2023-05-25T11:13:57.350Z,3.05
2023-05-25T11:17:08.005Z,3.30
2023-05-25T11:20:22.941Z,3.25
2023-05-25T11:23:26.029Z,3.35
2023-05-25T11:26:31.111Z,2.92
2023-05-25T11:29:36.177Z,2.85
2023-05-25T11:32:46.538Z,3.25
2023-05-25T11:35:50.182Z,2.88
2023-05-25T11:39:04.959Z,2.92
2023-05-25T11:42:16.676Z,3.00
2023-05-25T11:45:19.221Z,3.08
2023-05-25T11:48:21.773Z,3.08
2023-05-25T11:51:25.873Z,2.80
2023-05-25T11:54:29.931Z,2.97
2023-05-25T11:57:33.879Z,2.90
2023-05-25T12:00:36.383Z,3.13
2023-05-25T12:03:38.970Z,3.80
2023-05-25T12:06:41.797Z,4.00
2023-05-25T12:09:44.364Z,4.03
2023-05-25T12:12:49.389Z,3.15
2023-05-25T12:15:52.446Z,3.60
2023-05-25T12:18:55.905Z,3.75
2023-05-25T12:21:58.637Z,4.05
2023-05-25T12:25:01.608Z,3.50
2023-05-25T12:28:16.100Z,3.67
2023-05-25T12:31:22.943Z,3.83
2023-05-25T12:34:28.382Z,3.28
2023-05-25T12:37:31.165Z,3.85
2023-05-25T12:40:33.685Z,4.50
2023-05-25T12:43:43.722Z,3.80
2023-05-25T12:46:46.345Z,4.43
2023-05-25T12:49:51.840Z,3.75
2023-05-25T12:53:01.882Z,3.88
2023-05-25T12:56:05.697Z,3.75
2023-05-25T12:59:18.878Z,3.38
2023-05-25T13:02:21.427Z,3.60
2023-05-25T13:05:26.244Z,4.57
2023-05-25T13:08:29.019Z,4.50
2023-05-25T13:11:31.533Z,4.38
2023-05-25T13:14:36.030Z,4.32
2023-05-25T13:17:38.757Z,3.92
2023-05-25T13:20:41.708Z,4.57
2023-05-25T13:23:44.428Z,4.38
2023-05-25T13:26:49.233Z,4.32
2023-05-25T13:29:54.595Z,4.13
2023-05-25T13:32:57.146Z,4.22
2023-05-25T13:36:07.814Z,4.07
2023-05-25T13:39:13.365Z,4.00
2023-05-25T13:42:15.894Z,3.83
2023-05-25T13:45:19.902Z,4.28
2023-05-25T13:48:22.608Z,4.10
2023-05-25T13:51:25.167Z,4.43
2023-05-25T13:54:27.662Z,3.60
2023-05-25T13:57:30.121Z,3.55
2023-05-25T14:00:34.392Z,4.45
2023-05-25T14:03:38.544Z,3.35
2023-05-25T14:06:41.207Z,4.03
2023-05-25T14:09:43.789Z,4.15
2023-05-25T14:12:46.318Z,3.67
2023-05-25T14:15:50.163Z,3.95
2023-05-25T14:18:52.905Z,3.85
2023-05-25T14:25:00.805Z,4.10
2023-05-25T14:28:03.418Z,4.35
2023-05-25T14:31:07.315Z,3.42
2023-05-25T14:34:09.858Z,3.22
2023-05-25T14:37:12.914Z,3.60
2023-05-25T14:40:15.415Z,3.90
2023-05-25T14:43:17.921Z,3.45
2023-05-25T14:46:21.770Z,3.10
2023-05-25T14:49:25.065Z,3.92
2023-05-25T14:52:27.605Z,3.45
2023-05-25T14:55:30.123Z,3.50
2023-05-25T14:58:32.897Z,3.65
2023-05-25T15:01:36.850Z,2.80
2023-05-25T15:04:39.463Z,3.08
2023-05-25T15:07:42.387Z,3.25
2023-05-25T15:10:44.985Z,3.42
2023-05-25T15:13:47.590Z,3.88
2023-05-25T15:16:51.516Z,3.75
2023-05-25T15:19:54.187Z,3.95
2023-05-25T15:22:56.769Z,3.42
2023-05-25T15:26:03.741Z,3.78
2023-05-25T15:29:06.238Z,3.78
2023-05-25T15:32:13.217Z,3.47
2023-05-25T15:35:15.920Z,3.53
2023-05-25T15:38:18.563Z,3.70
2023-05-25T15:41:21.088Z,3.55
2023-05-25T15:44:23.581Z,3.15
2023-05-25T15:47:27.419Z,2.95
2023-05-25T15:50:29.923Z,3.10
2023-05-25T15:53:33.831Z,3.13
2023-05-25T15:56:36.627Z,3.40
2023-05-25T15:59:39.083Z,3.00
2023-05-25T16:02:42.981Z,3.63
2023-05-25T16:05:45.777Z,2.53
2023-05-25T16:08:48.462Z,2.83
2023-05-25T16:11:51.431Z,2.65
2023-05-25T16:14:54.018Z,3.05
2023-05-25T16:17:57.834Z,3.20
2023-05-25T16:21:00.750Z,2.90
2023-05-25T16:24:03.555Z,2.90
2023-05-25T16:27:06.948Z,3.08
2023-05-25T16:30:13.093Z,2.70
2023-05-25T16:33:17.269Z,2.80
2023-05-25T16:36:19.790Z,2.55
2023-05-25T16:39:22.299Z,2.70
2023-05-25T16:42:26.283Z,3.17
2023-05-25T16:45:29.018Z,2.55
2023-05-25T16:48:32.876Z,2.72
2023-05-25T16:51:35.440Z,2.65
2023-05-25T16:54:37.921Z,3.22
2023-05-25T16:57:40.456Z,2.75
2023-05-25T17:00:43.332Z,2.70
2023-05-25T17:03:47.278Z,3.05
2023-05-25T17:06:49.873Z,3.33
2023-05-25T17:09:52.384Z,3.03
2023-05-25T17:12:55.102Z,2.83
2023-05-25T17:15:57.855Z,3.03
2023-05-25T17:19:01.663Z,2.92
2023-05-25T17:22:04.186Z,2.97
2023-05-25T17:25:08.868Z,2.53
2023-05-25T17:28:11.520Z,2.72
2023-05-25T17:31:14.122Z,2.63
2023-05-25T17:34:18.185Z,3.33
2023-05-25T17:37:21.200Z,3.28
2023-05-25T17:40:24.023Z,2.92
2023-05-25T17:43:26.528Z,2.80
2023-05-25T17:46:29.298Z,3.15
2023-05-25T17:49:33.428Z,3.58
2023-05-25T17:52:36.078Z,3.60
2023-05-25T17:55:38.550Z,4.45
2023-05-25T17:58:47.143Z,3.20
2023-05-25T18:01:49.720Z,3.45
2023-05-25T18:04:53.525Z,4.03
2023-05-25T18:07:56.034Z,3.85
2023-05-25T18:10:59.011Z,3.40
2023-05-25T18:14:01.541Z,3.25
2023-05-25T18:17:04.715Z,3.00
2023-05-25T18:20:10.216Z,3.47
2023-05-25T18:23:13.298Z,3.25
2023-05-25T18:26:15.824Z,3.63
2023-05-25T18:29:18.447Z,3.78
2023-05-25T18:32:20.961Z,3.67
2023-05-25T18:35:24.941Z,3.90
2023-05-25T18:38:27.412Z,3.33
2023-05-25T18:41:30.083Z,3.78
2023-05-25T18:44:32.739Z,4.03
2023-05-25T18:47:35.512Z,3.47
2023-05-25T18:50:41.846Z,3.85
2023-05-25T18:53:44.695Z,4.10
2023-05-25T18:56:47.258Z,4.38
2023-05-25T18:59:49.793Z,3.28
2023-05-25T19:02:52.363Z,3.50
2023-05-25T19:05:56.277Z,3.28
2023-05-25T19:08:58.766Z,3.80
2023-05-25T19:12:01.390Z,4.03
2023-05-25T19:15:05.039Z,3.85
2023-05-25T19:18:07.572Z,4.32
2023-05-25T19:21:11.473Z,4.13
